Time;durP1;ratioP1;P1;durP2;ratioP2;P2;SDS_P1;SDS_P2;PMS_P1;PMS_P2;Temp;Humidity;BMP_temperature;BMP_pressure;BME280_temperature;BME280_humidity;BME280_pressure;Samples;Min_cycle;Max_cycle;Signal;HPM_P1;HPM_P2
2023/06/20 00:01:00;;;;;;;9.52;7.60;;;18.30;99.90;;;;;;5001443;28;20026;-76
2023/06/20 00:03:26;;;;;;;9.65;7.47;;;18.30;99.90;;;;;;4999930;28;20049;-77
2023/06/20 00:05:51;;;;;;;12.40;6.82;;;18.20;99.90;;;;;;4996448;28;20030;-76
2023/06/20 00:08:17;;;;;;;13.52;8.23;;;18.20;99.90;;;;;;4991956;28;20022;-76
2023/06/20 00:10:43;;;;;;;9.25;7.25;;;18.20;99.90;;;;;;4992175;28;20065;-75
2023/06/20 00:13:08;;;;;;;9.43;7.85;;;18.20;99.90;;;;;;4990192;28;20511;-76
2023/06/20 00:15:35;;;;;;;9.55;7.40;;;18.20;99.90;;;;;;4991956;28;20038;-76
2023/06/20 00:18:01;;;;;;;9.68;7.90;;;18.20;99.90;;;;;;4991908;28;20050;-76
2023/06/20 00:20:27;;;;;;;10.20;7.90;;;18.10;99.90;;;;;;4993623;28;20054;-75
2023/06/20 00:22:54;;;;;;;9.10;7.60;;;18.00;99.90;;;;;;4994097;28;20029;-77
2023/06/20 00:25:19;;;;;;;13.18;8.48;;;18.00;99.90;;;;;;4994575;28;20395;-75
2023/06/20 00:27:45;;;;;;;9.88;8.38;;;18.00;99.90;;;;;;4995728;28;20022;-76
2023/06/20 00:30:11;;;;;;;9.82;7.75;;;17.90;99.90;;;;;;4994586;28;20395;-76
2023/06/20 00:32:37;;;;;;;9.60;7.60;;;17.90;99.90;;;;;;4994444;28;20030;-75
2023/06/20 00:35:02;;;;;;;9.25;7.15;;;17.80;99.90;;;;;;4995510;28;20467;-76
2023/06/20 00:37:28;;;;;;;9.95;7.75;;;17.80;99.90;;;;;;4995404;28;20034;-76
2023/06/20 00:39:54;;;;;;;10.95;8.38;;;17.80;99.90;;;;;;4994316;28;20026;-75
2023/06/20 00:42:23;;;;;;;9.82;8.48;;;17.80;99.90;;;;;;4994372;28;20100;-75
2023/06/20 00:44:48;;;;;;;11.73;7.50;;;17.70;99.90;;;;;;4994029;28;20022;-75
2023/06/20 00:47:16;;;;;;;8.75;7.88;;;17.80;99.90;;;;;;4994075;28;20022;-76
2023/06/20 00:49:45;;;;;;;11.30;7.85;;;17.70;99.90;;;;;;4995398;28;20033;-75
2023/06/20 00:52:21;;;;;;;10.20;7.80;;;17.70;99.90;;;;;;4994203;28;20033;-76
2023/06/20 00:54:48;;;;;;;12.80;9.13;;;17.70;99.90;;;;;;4995241;28;20025;-77
2023/06/20 00:57:16;;;;;;;11.15;8.48;;;17.60;99.90;;;;;;4993888;28;20022;-76
2023/06/20 00:59:49;;;;;;;11.07;8.27;;;17.60;99.90;;;;;;4995279;28;20022;-76
2023/06/20 01:02:15;;;;;;;10.25;8.40;;;17.60;99.90;;;;;;4994160;28;20113;-76
2023/06/20 01:04:44;;;;;;;10.25;7.88;;;17.70;99.90;;;;;;4994994;28;20018;-76
2023/06/20 01:07:24;;;;;;;15.32;8.02;;;17.60;99.90;;;;;;4995100;28;20031;-76
2023/06/20 01:10:31;;;;;;;9.73;7.00;;;17.60;99.90;;;;;;4995087;28;20022;-76
2023/06/20 01:13:21;;;;;;;10.55;7.35;;;17.70;99.90;;;;;;4993634;28;20030;-76
2023/06/20 01:15:55;;;;;;;10.73;8.23;;;17.60;99.90;;;;;;4993517;28;20026;-76
2023/06/20 01:18:46;;;;;;;9.63;7.55;;;17.60;99.90;;;;;;4993487;28;20022;-76
2023/06/20 01:21:17;;;;;;;9.77;8.05;;;17.50;99.90;;;;;;4994847;28;20391;-76
2023/06/20 01:24:12;;;;;;;11.80;8.43;;;17.50;99.90;;;;;;4994577;28;20023;-76
2023/06/20 01:26:49;;;;;;;9.70;7.68;;;17.40;99.90;;;;;;4994721;28;20030;-76
2023/06/20 01:29:45;;;;;;;11.85;7.90;;;17.30;99.90;;;;;;4994589;28;20554;-76
2023/06/20 01:32:16;;;;;;;12.48;8.82;;;17.30;99.90;;;;;;4991731;28;20066;-76
2023/06/20 01:34:49;;;;;;;10.85;8.02;;;17.20;99.90;;;;;;4993042;28;20023;-76
2023/06/20 01:37:17;;;;;;;9.50;8.18;;;17.20;99.90;;;;;;4994615;28;20653;-76
2023/06/20 01:39:50;;;;;;;10.75;8.60;;;17.10;99.90;;;;;;4994459;28;20023;-76
2023/06/20 01:42:19;;;;;;;16.10;8.52;;;17.20;99.90;;;;;;4994510;28;20018;-75
2023/06/20 01:44:46;;;;;;;8.80;7.50;;;17.30;99.90;;;;;;4993145;28;20456;-76
2023/06/20 01:47:15;;;;;;;10.18;7.90;;;17.30;99.90;;;;;;4993168;28;20034;-76
2023/06/20 01:49:42;;;;;;;12.75;8.23;;;17.30;99.90;;;;;;4993067;28;20022;-76
2023/06/20 01:52:10;;;;;;;8.13;7.10;;;17.20;99.90;;;;;;4994311;28;20027;-76
2023/06/20 01:54:38;;;;;;;10.90;7.55;;;17.20;99.90;;;;;;4994147;28;20049;-76
2023/06/20 01:57:05;;;;;;;9.25;8.25;;;17.10;99.90;;;;;;4992663;28;20030;-76
2023/06/20 01:59:32;;;;;;;11.25;8.10;;;17.10;99.90;;;;;;4992808;28;20031;-76
2023/06/20 02:01:59;;;;;;;8.35;7.28;;;17.20;99.90;;;;;;4992823;28;20495;-75
2023/06/20 02:04:26;;;;;;;9.10;6.05;;;17.20;99.90;;;;;;4994015;28;20026;-76
2023/06/20 02:06:53;;;;;;;10.13;6.85;;;17.20;99.90;;;;;;4994171;28;20439;-76
2023/06/20 02:09:19;;;;;;;7.60;6.30;;;17.10;99.90;;;;;;4993950;28;20043;-76
2023/06/20 02:11:46;;;;;;;11.70;7.10;;;17.00;99.90;;;;;;4993969;28;20141;-76
2023/06/20 02:14:13;;;;;;;11.60;7.30;;;17.00;99.90;;;;;;4992617;28;20706;-76
2023/06/20 02:16:40;;;;;;;9.80;7.72;;;17.00;99.90;;;;;;4993592;28;20034;-76
2023/06/20 02:19:07;;;;;;;15.15;9.10;;;17.00;99.90;;;;;;4993661;28;20019;-76
2023/06/20 02:21:40;;;;;;;9.82;8.35;;;17.00;99.90;;;;;;4992553;28;20450;-76
2023/06/20 02:24:06;;;;;;;10.43;7.82;;;16.90;99.90;;;;;;4993261;28;20061;-76
2023/06/20 02:26:35;;;;;;;12.15;8.80;;;16.90;99.90;;;;;;4992237;28;20545;-76
2023/06/20 02:29:05;;;;;;;10.40;8.82;;;17.00;99.90;;;;;;4993401;28;20033;-76
2023/06/20 02:31:39;;;;;;;11.25;7.88;;;16.90;99.90;;;;;;4992409;28;20553;-76
2023/06/20 02:34:08;;;;;;;9.52;8.07;;;16.90;99.90;;;;;;4993644;28;20030;-76
2023/06/20 02:36:35;;;;;;;10.75;8.00;;;16.80;99.90;;;;;;4992279;28;20487;-76
2023/06/20 02:39:01;;;;;;;10.10;7.88;;;16.80;99.90;;;;;;4993423;28;20052;-77
2023/06/20 02:41:27;;;;;;;16.38;9.32;;;16.70;99.90;;;;;;4993477;28;20030;-76
2023/06/20 02:43:53;;;;;;;11.15;8.77;;;16.60;99.90;;;;;;4993339;28;20026;-76
2023/06/20 02:46:33;;;;;;;10.95;8.75;;;16.60;99.90;;;;;;4993291;28;20041;-76
2023/06/20 02:49:01;;;;;;;10.43;8.55;;;16.60;99.90;;;;;;4993177;28;20026;-76
2023/06/20 02:51:33;;;;;;;47.45;10.93;;;16.60;99.90;;;;;;4999467;28;20382;-77
2023/06/20 02:54:23;;;;;;;11.48;8.52;;;16.70;99.90;;;;;;5012892;28;20104;-76
2023/06/20 02:56:54;;;;;;;12.60;10.15;;;16.60;99.90;;;;;;5011338;28;20030;-76
2023/06/20 02:59:25;;;;;;;12.60;9.27;;;16.70;99.90;;;;;;5012413;28;20478;-75
2023/06/20 03:01:56;;;;;;;13.65;8.98;;;16.70;99.90;;;;;;5011423;28;20103;-76
2023/06/20 03:04:26;;;;;;;12.98;8.38;;;16.70;99.90;;;;;;5012607;28;20033;-76
2023/06/20 03:06:53;;;;;;;12.77;8.63;;;16.80;99.90;;;;;;5011216;28;20029;-77
2023/06/20 03:09:20;;;;;;;10.18;7.47;;;16.80;99.90;;;;;;5011118;28;20029;-76
2023/06/20 03:11:46;;;;;;;12.82;8.98;;;16.80;99.90;;;;;;5012367;28;20025;-76
2023/06/20 03:14:13;;;;;;;10.32;8.68;;;16.70;99.90;;;;;;5012302;28;20022;-76
2023/06/20 03:16:41;;;;;;;13.82;8.45;;;16.60;99.90;;;;;;5012257;28;20034;-76
2023/06/20 03:19:09;;;;;;;11.65;8.70;;;16.70;99.90;;;;;;5012406;28;20021;-77
2023/06/20 03:21:34;;;;;;;10.80;8.60;;;16.60;99.90;;;;;;5011206;28;20048;-76
2023/06/20 03:24:00;;;;;;;10.05;7.95;;;16.70;99.90;;;;;;5011795;28;20430;-76
2023/06/20 03:26:26;;;;;;;10.23;9.07;;;16.70;99.90;;;;;;5012146;28;20034;-75
2023/06/20 03:28:51;;;;;;;10.55;8.25;;;16.70;99.90;;;;;;5010775;28;20117;-76
2023/06/20 03:31:17;;;;;;;10.43;7.85;;;16.80;99.90;;;;;;5010917;28;20025;-76
2023/06/20 03:33:43;;;;;;;14.70;9.20;;;16.70;99.90;;;;;;5010980;28;20026;-76
2023/06/20 03:36:09;;;;;;;10.95;8.30;;;16.70;99.90;;;;;;5011893;28;20479;-76
2023/06/20 03:38:35;;;;;;;15.55;8.85;;;16.70;99.90;;;;;;5011894;28;20026;-75
2023/06/20 03:41:01;;;;;;;10.95;8.30;;;16.70;99.90;;;;;;5010825;28;20025;-77
2023/06/20 03:43:27;;;;;;;13.45;8.75;;;16.70;99.90;;;;;;5012159;28;20022;-76
2023/06/20 03:45:52;;;;;;;14.13;9.10;;;16.80;99.90;;;;;;5011918;28;20030;-76
2023/06/20 03:48:19;;;;;;;10.38;8.23;;;16.80;99.90;;;;;;5011959;28;20017;-76
2023/06/20 03:50:45;;;;;;;10.93;8.98;;;16.90;99.90;;;;;;5010820;28;20101;-76
2023/06/20 03:53:10;;;;;;;13.35;9.40;;;17.00;99.90;;;;;;5012707;28;20042;-76
2023/06/20 03:55:36;;;;;;;11.95;9.27;;;17.00;99.90;;;;;;5012845;28;20026;-77
2023/06/20 03:58:02;;;;;;;11.25;8.80;;;17.10;99.90;;;;;;5014823;28;20034;-77
2023/06/20 04:00:27;;;;;;;12.73;8.45;;;17.00;99.90;;;;;;5016399;28;20483;-76
2023/06/20 04:02:53;;;;;;;12.48;9.10;;;17.10;99.90;;;;;;5016175;28;20029;-77
2023/06/20 04:05:18;;;;;;;14.32;9.25;;;17.10;99.90;;;;;;5015872;28;20030;-77
2023/06/20 04:07:44;;;;;;;11.77;9.52;;;17.20;99.90;;;;;;5015742;28;20073;-77
2023/06/20 04:10:12;;;;;;;10.88;8.45;;;17.40;99.90;;;;;;5014625;28;20433;-76
2023/06/20 04:12:38;;;;;;;15.05;9.63;;;17.40;99.90;;;;;;5014777;28;20030;-76
2023/06/20 04:15:05;;;;;;;12.90;8.80;;;17.50;99.90;;;;;;5016674;28;20426;-75
2023/06/20 04:17:30;;;;;;;9.85;8.30;;;17.50;99.90;;;;;;5015573;28;20029;-75
2023/06/20 04:19:56;;;;;;;11.73;9.57;;;18.50;99.90;;;;;;5016936;28;20026;-75
2023/06/20 04:22:26;;;;;;;12.32;8.77;;;19.20;99.90;;;;;;5019321;28;20026;-75
2023/06/20 04:24:55;;;;;;;10.70;8.85;;;19.20;99.90;;;;;;5021975;28;20022;-75
2023/06/20 04:27:20;;;;;;;10.30;8.82;;;19.60;99.90;;;;;;5023506;28;20022;-74
2023/06/20 04:29:46;;;;;;;11.75;8.50;;;19.70;99.90;;;;;;5016645;28;20048;-76
2023/06/20 04:32:12;;;;;;;12.07;8.20;;;19.70;99.90;;;;;;5015492;28;20045;-76
2023/06/20 04:34:37;;;;;;;8.70;7.28;;;20.00;99.90;;;;;;5014052;28;20051;-75
2023/06/20 04:37:03;;;;;;;11.20;7.75;;;20.10;99.90;;;;;;5014948;28;20056;-76
2023/06/20 04:39:29;;;;;;;8.20;7.05;;;20.10;99.90;;;;;;5015258;28;20478;-76
2023/06/20 04:41:55;;;;;;;11.60;8.57;;;20.00;99.90;;;;;;5015250;28;20501;-75
2023/06/20 04:44:21;;;;;;;11.73;7.90;;;20.00;99.90;;;;;;5014047;28;20045;-76
2023/06/20 04:46:46;;;;;;;9.40;7.60;;;19.80;99.90;;;;;;5014002;28;20119;-76
2023/06/20 04:49:12;;;;;;;10.40;7.78;;;19.80;99.90;;;;;;5013769;28;20393;-76
2023/06/20 04:51:40;;;;;;;11.90;8.70;;;20.00;99.90;;;;;;5015110;28;20038;-75
2023/06/20 04:54:07;;;;;;;11.38;8.02;;;20.20;99.90;;;;;;5015232;28;20497;-76
2023/06/20 04:56:40;;;;;;;9.68;7.80;;;20.20;99.90;;;;;;5015001;28;20113;-76
2023/06/20 04:59:06;;;;;;;19.88;8.20;;;20.30;99.90;;;;;;5013474;28;20030;-76
2023/06/20 05:01:32;;;;;;;11.00;7.70;;;20.50;99.90;;;;;;5014956;28;20056;-75
2023/06/20 05:03:58;;;;;;;10.18;8.32;;;20.70;99.90;;;;;;5014027;28;20407;-75
2023/06/20 05:06:24;;;;;;;8.68;6.85;;;21.00;99.90;;;;;;5014723;28;20024;-76
2023/06/20 05:08:52;;;;;;;10.07;7.35;;;20.80;99.90;;;;;;5014633;28;20056;-75
2023/06/20 05:11:17;;;;;;;10.63;7.95;;;20.60;99.90;;;;;;5013416;28;20034;-75
2023/06/20 05:13:43;;;;;;;14.93;7.78;;;20.70;99.90;;;;;;5014944;28;20030;-76
2023/06/20 05:16:09;;;;;;;14.38;7.65;;;21.10;99.90;;;;;;5013155;28;20133;-75
2023/06/20 05:18:35;;;;;;;9.75;7.78;;;21.00;99.90;;;;;;5014385;28;20054;-75
2023/06/20 05:21:00;;;;;;;9.18;7.03;;;20.90;99.90;;;;;;5014592;28;20041;-76
2023/06/20 05:23:26;;;;;;;10.52;8.77;;;20.80;99.90;;;;;;5013284;28;20018;-75
2023/06/20 05:25:52;;;;;;;8.95;8.10;;;20.70;99.90;;;;;;5012927;28;20037;-75
2023/06/20 05:28:18;;;;;;;10.38;7.60;;;20.70;99.90;;;;;;5013844;28;20026;-76
2023/06/20 05:30:44;;;;;;;9.43;7.82;;;20.70;99.90;;;;;;5014038;28;20451;-75
2023/06/20 05:33:10;;;;;;;11.48;7.93;;;20.60;99.90;;;;;;5013079;28;20030;-76
2023/06/20 05:35:35;;;;;;;10.32;7.65;;;20.60;99.90;;;;;;5013739;28;20041;-75
2023/06/20 05:38:01;;;;;;;9.82;8.18;;;20.60;99.90;;;;;;5011851;28;20022;-75
2023/06/20 05:40:26;;;;;;;10.93;8.45;;;20.80;99.90;;;;;;5012989;28;20049;-75
2023/06/20 05:42:52;;;;;;;9.07;8.10;;;21.00;99.90;;;;;;5014017;28;20029;-75
2023/06/20 05:45:18;;;;;;;12.43;8.00;;;21.00;99.90;;;;;;5014041;28;20058;-75
2023/06/20 05:47:46;;;;;;;10.55;8.02;;;21.20;99.90;;;;;;5013840;28;20450;-75
2023/06/20 05:50:12;;;;;;;9.88;8.45;;;21.40;99.90;;;;;;5014163;28;20390;-76
2023/06/20 05:52:37;;;;;;;8.45;7.10;;;21.40;99.90;;;;;;5014012;28;20022;-75
2023/06/20 05:55:04;;;;;;;10.25;8.68;;;21.50;99.90;;;;;;5014518;28;20022;-77
2023/06/20 05:57:30;;;;;;;12.85;8.50;;;22.00;99.90;;;;;;5032679;22;20133;-76
2023/06/20 05:59:56;;;;;;;7.95;7.05;;;22.30;99.90;;;;;;5013627;28;20079;-75
2023/06/20 06:02:21;;;;;;;10.30;8.32;;;22.50;99.90;;;;;;5011321;28;20397;-74
2023/06/20 06:04:48;;;;;;;9.20;7.40;;;22.60;99.90;;;;;;5028702;28;20109;-73
2023/06/20 06:07:14;;;;;;;10.10;7.15;;;22.70;99.90;;;;;;5028719;28;20030;-75
2023/06/20 06:09:39;;;;;;;12.88;9.02;;;22.80;99.90;;;;;;5013568;28;20106;-75
2023/06/20 06:12:06;;;;;;;9.23;7.65;;;23.10;99.90;;;;;;5012679;28;20490;-75
2023/06/20 06:14:32;;;;;;;9.57;7.97;;;23.00;99.90;;;;;;5013210;28;20034;-76
2023/06/20 06:16:57;;;;;;;15.30;7.93;;;23.20;99.90;;;;;;5013201;28;20041;-75
2023/06/20 06:19:24;;;;;;;8.93;7.85;;;23.30;99.90;;;;;;5012559;28;20107;-76
2023/06/20 06:21:50;;;;;;;10.68;7.75;;;23.40;99.90;;;;;;5011993;28;20045;-76
2023/06/20 06:24:15;;;;;;;8.45;6.65;;;23.50;99.20;;;;;;5013364;28;20026;-75
2023/06/20 06:26:41;;;;;;;9.70;8.00;;;23.50;99.20;;;;;;5013396;28;20109;-77
2023/06/20 06:29:07;;;;;;;8.95;7.65;;;23.70;99.20;;;;;;5014971;28;20097;-77
2023/06/20 06:31:34;;;;;;;8.90;6.93;;;23.70;98.70;;;;;;5014950;28;20393;-76
2023/06/20 06:34:02;;;;;;;11.27;7.22;;;23.60;99.00;;;;;;5013866;28;20033;-76
2023/06/20 06:36:32;;;;;;;9.90;7.35;;;23.70;99.20;;;;;;5014095;28;20489;-77
2023/06/20 06:38:59;;;;;;;9.57;7.63;;;23.90;98.30;;;;;;5014199;28;20072;-77
2023/06/20 06:41:25;;;;;;;8.50;7.32;;;24.00;98.10;;;;;;5014448;28;20105;-76
2023/06/20 06:43:51;;;;;;;8.82;6.50;;;24.10;98.20;;;;;;5013662;28;20538;-77
2023/06/20 06:46:17;;;;;;;9.10;6.70;;;24.30;97.10;;;;;;5011991;28;20029;-77
2023/06/20 06:48:43;;;;;;;10.80;7.20;;;24.40;97.00;;;;;;5012939;28;20037;-77
2023/06/20 06:51:08;;;;;;;9.85;6.95;;;24.60;97.20;;;;;;5014566;28;20077;-77
2023/06/20 06:53:34;;;;;;;6.80;5.97;;;24.70;97.20;;;;;;5010738;28;20026;-77
2023/06/20 06:55:59;;;;;;;7.32;6.53;;;25.00;96.10;;;;;;5012490;28;20501;-77
2023/06/20 06:58:25;;;;;;;8.15;6.53;;;25.30;96.40;;;;;;5011115;28;20033;-76
2023/06/20 07:00:51;;;;;;;8.30;5.82;;;25.50;95.40;;;;;;5011169;28;20111;-77
2023/06/20 07:03:16;;;;;;;7.70;6.15;;;25.80;93.70;;;;;;5012471;28;20054;-77
2023/06/20 07:05:42;;;;;;;8.52;6.32;;;26.00;93.70;;;;;;5011317;28;20390;-77
2023/06/20 07:08:07;;;;;;;6.57;5.88;;;26.20;92.50;;;;;;5012926;28;20026;-77
2023/06/20 07:10:33;;;;;;;10.57;6.45;;;26.40;93.60;;;;;;5011457;28;20107;-75
2023/06/20 07:13:00;;;;;;;8.13;6.20;;;26.30;91.90;;;;;;5011733;28;20053;-77
2023/06/20 07:15:26;;;;;;;6.85;5.43;;;26.20;91.20;;;;;;5013801;28;20403;-76
2023/06/20 07:17:52;;;;;;;7.80;6.60;;;26.40;92.00;;;;;;5012769;28;20368;-77
2023/06/20 07:20:17;;;;;;;7.47;5.85;;;26.60;90.90;;;;;;5013929;28;20029;-76
2023/06/20 07:22:45;;;;;;;6.47;5.43;;;26.60;90.30;;;;;;5012830;28;20033;-77
2023/06/20 07:25:11;;;;;;;6.03;5.30;;;27.00;88.40;;;;;;5014416;28;20071;-76
2023/06/20 07:27:37;;;;;;;6.38;5.70;;;27.10;88.50;;;;;;5013090;28;20018;-75
2023/06/20 07:30:03;;;;;;;7.00;5.80;;;27.00;85.30;;;;;;5012281;28;20029;-76
2023/06/20 07:32:29;;;;;;;5.80;5.20;;;27.30;87.80;;;;;;5012305;28;20022;-76
2023/06/20 07:34:54;;;;;;;6.07;5.47;;;27.20;84.80;;;;;;5013006;28;20040;-78
2023/06/20 07:37:20;;;;;;;6.43;5.38;;;27.50;87.40;;;;;;5011397;28;20049;-74
2023/06/20 07:39:46;;;;;;;6.85;5.95;;;27.60;84.50;;;;;;5012394;28;20053;-76
2023/06/20 07:42:13;;;;;;;5.57;5.07;;;27.60;86.10;;;;;;5010730;28;20036;-74
2023/06/20 07:44:38;;;;;;;8.45;5.60;;;27.50;87.60;;;;;;5012390;28;20431;-75
2023/06/20 07:47:04;;;;;;;6.55;5.88;;;27.70;86.80;;;;;;5011904;28;20026;-76
2023/06/20 07:49:30;;;;;;;5.95;5.35;;;27.70;87.30;;;;;;5011969;28;20030;-75
2023/06/20 07:51:56;;;;;;;5.30;4.80;;;27.90;85.50;;;;;;5012208;28;20084;-77
2023/06/20 07:54:22;;;;;;;8.65;5.10;;;27.90;83.00;;;;;;5013404;28;20102;-77
2023/06/20 07:56:47;;;;;;;7.93;6.00;;;27.90;81.30;;;;;;5010888;28;20122;-76
2023/06/20 07:59:13;;;;;;;8.88;6.30;;;27.90;83.70;;;;;;5011803;28;20087;-77
2023/06/20 08:01:39;;;;;;;5.65;5.05;;;27.90;80.90;;;;;;5011947;28;20076;-76
2023/06/20 08:04:04;;;;;;;5.85;5.03;;;28.00;82.60;;;;;;5012214;28;20077;-76
2023/06/20 08:06:30;;;;;;;6.07;5.47;;;28.00;81.20;;;;;;5011913;28;20521;-76
2023/06/20 08:08:56;;;;;;;6.10;5.50;;;28.20;82.90;;;;;;5011714;28;20174;-76
2023/06/20 08:11:22;;;;;;;6.60;4.72;;;28.30;82.30;;;;;;5011938;28;20034;-75
2023/06/20 08:13:48;;;;;;;5.28;4.78;;;28.40;80.00;;;;;;5011984;28;20026;-76
2023/06/20 08:16:14;;;;;;;5.72;5.13;;;28.50;80.40;;;;;;5011819;28;20029;-76
2023/06/20 08:18:40;;;;;;;5.45;4.90;;;28.60;79.50;;;;;;5010399;28;20057;-77
2023/06/20 08:21:05;;;;;;;5.07;4.38;;;28.60;79.90;;;;;;5010611;28;20144;-75
2023/06/20 08:23:31;;;;;;;5.40;4.90;;;28.60;79.70;;;;;;5011849;28;20030;-76
2023/06/20 08:25:57;;;;;;;5.72;5.00;;;28.70;78.30;;;;;;5011653;28;20106;-76
2023/06/20 08:28:23;;;;;;;6.95;4.95;;;28.80;78.20;;;;;;5011424;28;20440;-76
2023/06/20 08:30:49;;;;;;;6.43;4.90;;;28.80;78.90;;;;;;5011789;28;20022;-76
2023/06/20 08:33:14;;;;;;;5.00;4.53;;;28.90;80.30;;;;;;5011930;28;20482;-76
2023/06/20 08:35:40;;;;;;;7.03;4.75;;;29.00;77.70;;;;;;5010324;28;20054;-77
2023/06/20 08:38:06;;;;;;;5.00;4.50;;;29.10;79.00;;;;;;5011815;28;20113;-75
2023/06/20 08:40:32;;;;;;;5.05;4.35;;;29.20;77.90;;;;;;5010742;28;20467;-76
2023/06/20 08:42:58;;;;;;;5.85;4.40;;;29.20;75.50;;;;;;5014285;28;20112;-75
2023/06/20 08:45:23;;;;;;;4.90;4.40;;;29.20;74.50;;;;;;5014423;28;20058;-76
2023/06/20 08:47:49;;;;;;;6.07;4.18;;;29.30;74.90;;;;;;5015453;28;20061;-76
2023/06/20 08:50:15;;;;;;;5.35;4.60;;;29.40;74.20;;;;;;5015331;28;20026;-75
2023/06/20 08:52:48;;;;;;;6.20;4.40;;;29.50;73.40;;;;;;5015338;28;20467;-76
2023/06/20 08:55:15;;;;;;;4.72;4.32;;;29.50;73.40;;;;;;5013476;28;20026;-75
2023/06/20 08:57:41;;;;;;;4.65;4.18;;;29.40;73.50;;;;;;5013921;28;20037;-76
2023/06/20 09:00:09;;;;;;;4.72;4.22;;;29.50;73.00;;;;;;5015626;28;20094;-77
2023/06/20 09:02:35;;;;;;;5.47;4.32;;;29.40;68.90;;;;;;5016413;28;20033;-77
2023/06/20 09:05:02;;;;;;;6.10;4.45;;;29.40;68.80;;;;;;5022509;28;20025;-78
2023/06/20 09:07:37;;;;;;;4.80;4.40;;;29.50;71.60;;;;;;5027741;28;20026;-79
2023/06/20 09:10:04;;;;;;;5.10;4.40;;;29.50;70.10;;;;;;5022547;28;20025;-76
2023/06/20 09:12:44;;;;;;;4.68;3.72;;;29.70;70.30;;;;;;5020731;28;20121;-79
2023/06/20 09:15:13;;;;;;;6.85;4.20;;;29.80;69.10;;;;;;5023325;28;20033;-77
2023/06/20 09:17:39;;;;;;;4.82;4.20;;;29.70;67.80;;;;;;5024586;28;20028;-78
2023/06/20 09:20:06;;;;;;;5.20;4.32;;;29.70;69.50;;;;;;5027798;28;20022;-77
2023/06/20 09:22:32;;;;;;;4.90;4.50;;;29.70;68.70;;;;;;5018016;28;20026;-75
2023/06/20 09:25:01;;;;;;;5.05;4.50;;;29.60;69.30;;;;;;5019017;28;20025;-75
2023/06/20 09:27:32;;;;;;;7.55;4.82;;;29.60;68.80;;;;;;5018898;28;20026;-77
2023/06/20 09:30:00;;;;;;;5.72;5.22;;;29.60;69.50;;;;;;5020124;28;20026;-75
2023/06/20 09:32:26;;;;;;;4.50;4.07;;;29.60;71.60;;;;;;5038071;28;20034;-78
2023/06/20 09:34:52;;;;;;;5.63;5.10;;;29.60;72.10;;;;;;5021654;28;20053;-77
2023/06/20 09:37:18;;;;;;;5.63;5.13;;;29.70;70.60;;;;;;5021381;28;20030;-78
2023/06/20 09:39:44;;;;;;;6.28;5.00;;;29.70;71.30;;;;;;5018610;28;20022;-76
2023/06/20 09:42:13;;;;;;;5.50;4.63;;;30.00;71.40;;;;;;5020023;28;20026;-78
2023/06/20 09:44:42;;;;;;;5.57;5.07;;;30.00;69.60;;;;;;5018373;28;20037;-77
2023/06/20 09:47:08;;;;;;;4.97;4.50;;;30.20;67.70;;;;;;5017492;28;20033;-76
2023/06/20 09:49:35;;;;;;;6.65;4.72;;;30.20;66.50;;;;;;5017169;28;20061;-77
2023/06/20 09:52:05;;;;;;;5.63;4.90;;;30.40;68.00;;;;;;5019116;28;20026;-77
2023/06/20 09:54:50;;;;;;;5.78;5.13;;;30.50;67.30;;;;;;5019656;28;20506;-76
2023/06/20 09:57:22;;;;;;;6.87;5.67;;;30.40;66.20;;;;;;5017941;28;20037;-77
2023/06/20 09:59:50;;;;;;;5.45;4.18;;;30.20;68.90;;;;;;5018109;28;20088;-76
2023/06/20 10:02:17;;;;;;;5.80;5.30;;;30.30;69.40;;;;;;5018299;28;20026;-77
2023/06/20 10:04:43;;;;;;;5.93;5.22;;;30.40;67.70;;;;;;5017942;28;20026;-77
2023/06/20 10:07:14;;;;;;;6.82;5.05;;;30.50;68.00;;;;;;5018506;28;20025;-75
2023/06/20 10:09:41;;;;;;;6.43;5.70;;;30.50;69.70;;;;;;5019179;28;20398;-79
2023/06/20 10:12:09;;;;;;;10.00;5.97;;;30.30;69.60;;;;;;5018199;28;20025;-77
2023/06/20 10:14:35;;;;;;;8.45;5.57;;;30.20;70.70;;;;;;5015236;28;20041;-74
2023/06/20 10:17:08;;;;;;;5.57;5.05;;;30.00;71.40;;;;;;5016129;28;20505;-76
2023/06/20 10:19:50;;;;;;;9.40;5.38;;;29.80;71.40;;;;;;5015774;28;20033;-77
2023/06/20 10:22:33;;;;;;;6.07;5.55;;;29.70;72.60;;;;;;5016644;28;20029;-76
2023/06/20 10:25:11;;;;;;;6.88;5.65;;;29.30;74.60;;;;;;5014255;28;20029;-75
2023/06/20 10:27:44;;;;;;;6.22;5.63;;;29.30;75.00;;;;;;5015068;28;20441;-76
2023/06/20 10:30:12;;;;;;;7.47;6.45;;;29.30;76.00;;;;;;5016374;28;20021;-77
2023/06/20 10:33:07;;;;;;;6.78;6.00;;;29.50;77.10;;;;;;5015877;28;20064;-77
2023/06/20 10:35:32;;;;;;;6.95;5.60;;;29.90;75.80;;;;;;5015572;28;20061;-76
2023/06/20 10:38:08;;;;;;;7.43;5.78;;;30.20;75.30;;;;;;5015270;28;20025;-76
2023/06/20 10:40:36;;;;;;;8.95;6.05;;;30.40;71.50;;;;;;5016899;28;20026;-76
2023/06/20 10:43:07;;;;;;;7.28;6.57;;;30.50;73.50;;;;;;5015063;28;20056;-76
2023/06/20 10:45:33;;;;;;;6.95;6.10;;;30.60;72.90;;;;;;5015648;28;20041;-76
2023/06/20 10:48:00;;;;;;;7.72;6.50;;;30.40;73.20;;;;;;5016830;28;20032;-78
2023/06/20 10:50:26;;;;;;;10.10;6.28;;;30.70;73.10;;;;;;5015380;28;20037;-75
2023/06/20 10:52:52;;;;;;;7.53;6.38;;;30.60;72.40;;;;;;5013077;28;20030;-77
2023/06/20 10:55:28;;;;;;;10.82;5.32;;;30.60;72.40;;;;;;5012058;28;20026;-77
2023/06/20 10:57:55;;;;;;;7.15;5.70;;;30.90;70.30;;;;;;5012435;28;20025;-76
2023/06/20 11:00:21;;;;;;;6.03;5.35;;;31.00;70.10;;;;;;5014371;28;20026;-76
2023/06/20 11:02:49;;;;;;;6.85;6.07;;;31.10;72.00;;;;;;5015579;28;20026;-76
2023/06/20 11:05:15;;;;;;;6.97;6.28;;;31.30;72.80;;;;;;5014544;28;20025;-74
2023/06/20 11:08:01;;;;;;;6.13;5.53;;;31.60;72.40;;;;;;5015106;28;20491;-75
2023/06/20 11:10:28;;;;;;;7.40;6.43;;;31.90;70.10;;;;;;5013851;28;20030;-76
2023/06/20 11:12:55;;;;;;;6.55;5.35;;;31.90;68.10;;;;;;5016413;28;20022;-78
2023/06/20 11:15:22;;;;;;;5.75;5.03;;;31.80;68.90;;;;;;5016120;28;20026;-77
2023/06/20 11:17:48;;;;;;;8.55;5.50;;;31.70;65.70;;;;;;5014762;28;20109;-77
2023/06/20 11:20:15;;;;;;;6.65;5.95;;;31.70;67.50;;;;;;5015725;28;20387;-77
2023/06/20 11:22:41;;;;;;;6.22;5.13;;;31.70;68.20;;;;;;5016962;28;20022;-78
2023/06/20 11:25:07;;;;;;;6.43;5.82;;;31.80;67.90;;;;;;5016071;28;20025;-77
2023/06/20 11:27:33;;;;;;;5.68;5.18;;;31.80;67.30;;;;;;5016846;28;20139;-77
2023/06/20 11:29:59;;;;;;;5.60;5.10;;;31.70;67.00;;;;;;5015768;28;20077;-77
2023/06/20 11:32:24;;;;;;;6.03;5.18;;;31.50;67.40;;;;;;5015525;28;20026;-78
2023/06/20 11:34:59;;;;;;;6.32;5.38;;;31.70;70.20;;;;;;5016644;28;20030;-77
2023/06/20 11:37:25;;;;;;;5.65;5.07;;;32.00;68.00;;;;;;5016789;28;20032;-76
2023/06/20 11:39:52;;;;;;;5.43;4.50;;;32.00;67.80;;;;;;5017888;28;20453;-76
2023/06/20 11:42:18;;;;;;;5.85;5.20;;;31.90;64.80;;;;;;5013835;28;20029;-76
2023/06/20 11:44:44;;;;;;;6.78;4.82;;;32.00;65.50;;;;;;5014524;28;20033;-78
2023/06/20 11:47:10;;;;;;;5.97;5.15;;;31.90;64.80;;;;;;5015422;28;20021;-79
2023/06/20 11:49:38;;;;;;;4.97;4.30;;;31.90;65.90;;;;;;5014031;28;20033;-76
2023/06/20 11:52:05;;;;;;;5.18;4.35;;;32.10;64.80;;;;;;5014011;28;20022;-78
2023/06/20 11:54:49;;;;;;;5.50;5.00;;;32.20;62.50;;;;;;5013487;28;20376;-76
2023/06/20 11:57:23;;;;;;;5.85;5.28;;;32.00;60.20;;;;;;5014916;28;20508;-77
2023/06/20 11:59:48;;;;;;;6.45;5.63;;;32.00;62.10;;;;;;5049416;23;20065;-78
2023/06/20 12:02:14;;;;;;;5.82;4.93;;;32.00;65.20;;;;;;5034883;28;20519;-77
2023/06/20 12:04:43;;;;;;;5.80;5.25;;;32.00;65.60;;;;;;5037181;28;20050;-79
2023/06/20 12:07:09;;;;;;;5.60;5.03;;;32.10;65.30;;;;;;5037876;28;20053;-80
2023/06/20 12:09:42;;;;;;;7.78;4.60;;;31.90;64.20;;;;;;5039067;28;20056;-78
2023/06/20 12:12:08;;;;;;;7.28;5.63;;;31.90;64.80;;;;;;5037108;28;20394;-79
2023/06/20 12:14:37;;;;;;;9.32;4.53;;;32.00;64.10;;;;;;5037769;28;20033;-80
2023/06/20 12:17:03;;;;;;;5.32;4.82;;;32.00;63.80;;;;;;5038665;28;20028;-79
2023/06/20 12:19:29;;;;;;;5.28;4.50;;;31.80;62.80;;;;;;5040338;28;20049;-80
2023/06/20 12:21:55;;;;;;;4.45;4.05;;;31.80;64.00;;;;;;5040528;28;20079;-80
2023/06/20 12:24:24;;;;;;;6.25;5.03;;;31.90;62.20;;;;;;5039701;28;20029;-80
2023/06/20 12:26:51;;;;;;;5.45;4.95;;;31.80;63.50;;;;;;5038868;28;20550;-80
2023/06/20 12:29:17;;;;;;;5.18;4.68;;;31.70;61.20;;;;;;5040967;28;20035;-80
2023/06/20 12:31:43;;;;;;;6.47;4.90;;;31.80;63.50;;;;;;5040868;28;20608;-80
2023/06/20 12:34:08;;;;;;;4.63;4.22;;;32.10;63.30;;;;;;5038505;28;20029;-80
2023/06/20 12:36:34;;;;;;;5.03;4.35;;;32.10;60.70;;;;;;5038360;28;20088;-80
2023/06/20 12:39:00;;;;;;;5.25;4.75;;;32.10;60.60;;;;;;5038159;28;20029;-79
2023/06/20 12:41:35;;;;;;;5.57;4.53;;;32.10;63.80;;;;;;5038004;28;20044;-80
2023/06/20 12:44:02;;;;;;;8.82;5.18;;;32.20;64.70;;;;;;5040010;28;20044;-80
2023/06/20 12:46:28;;;;;;;5.80;5.20;;;32.20;63.00;;;;;;5050803;28;20036;-78